createdAt,value
2019-03-23T00:01:58.762Z,13.23
2019-03-23T00:04:26.053Z,10.30
2019-03-23T00:06:53.326Z,11.13
2019-03-23T00:09:20.580Z,12.10
2019-03-23T00:11:47.853Z,11.50
2019-03-23T00:14:15.123Z,10.90
2019-03-23T00:16:42.654Z,11.90
2019-03-23T00:19:09.899Z,12.47
2019-03-23T00:21:37.145Z,12.83
2019-03-23T00:24:04.427Z,10.97
2019-03-23T00:26:31.688Z,13.97
2019-03-23T00:28:59.025Z,17.73
2019-03-23T00:31:26.270Z,11.97
2019-03-23T00:33:53.545Z,13.90
2019-03-23T00:36:20.828Z,17.17
2019-03-23T00:38:48.349Z,12.97
2019-03-23T00:41:15.876Z,12.37
2019-03-23T00:43:43.164Z,19.53
2019-03-23T00:46:10.486Z,12.93
2019-03-23T00:48:37.734Z,13.20
2019-03-23T00:51:05.011Z,11.87
2019-03-23T00:53:32.274Z,11.00
2019-03-23T00:55:59.541Z,12.90
2019-03-23T00:58:27.043Z,15.53
2019-03-23T01:00:54.537Z,12.30
2019-03-23T01:03:21.810Z,12.83
2019-03-23T01:05:49.092Z,11.10
2019-03-23T01:08:16.342Z,13.50
2019-03-23T01:10:43.630Z,12.17
2019-03-23T01:13:11.157Z,14.93
2019-03-23T01:15:38.443Z,14.10
2019-03-23T01:18:05.970Z,13.57
2019-03-23T01:20:33.500Z,10.73
2019-03-23T01:23:00.748Z,12.83
2019-03-23T01:25:28.029Z,13.80
2019-03-23T01:27:55.279Z,14.27
2019-03-23T01:30:22.816Z,13.07
2019-03-23T01:32:50.063Z,14.00
2019-03-23T01:35:17.594Z,12.43
2019-03-23T01:37:44.867Z,11.37
2019-03-23T01:40:12.443Z,13.97
2019-03-23T01:42:39.714Z,13.80
2019-03-23T01:45:08.434Z,12.20
2019-03-23T01:47:35.690Z,16.63
2019-03-23T01:50:04.084Z,14.30
2019-03-23T01:52:31.361Z,12.77
2019-03-23T01:54:58.868Z,12.30
2019-03-23T01:57:26.390Z,12.33
2019-03-23T01:59:53.643Z,18.10
2019-03-23T02:02:20.913Z,11.93
2019-03-23T02:04:48.583Z,14.20
2019-03-23T02:07:15.873Z,11.87
2019-03-23T02:09:43.376Z,14.67
2019-03-23T02:12:10.629Z,12.60
2019-03-23T02:14:37.894Z,15.07
2019-03-23T02:17:05.147Z,12.30
2019-03-23T02:19:32.684Z,13.03
2019-03-23T02:21:59.954Z,12.60
2019-03-23T02:24:27.470Z,10.23
2019-03-23T02:26:54.743Z,13.80
2019-03-23T02:29:22.025Z,16.60
2019-03-23T02:31:49.286Z,13.13
2019-03-23T02:34:16.883Z,12.67
2019-03-23T02:36:44.173Z,11.13
2019-03-23T02:39:11.682Z,12.43
2019-03-23T02:41:39.007Z,12.27
2019-03-23T02:44:06.288Z,18.33
2019-03-23T02:46:33.836Z,15.70
2019-03-23T02:49:01.083Z,15.37
2019-03-23T02:51:28.376Z,24.13
2019-03-23T02:53:55.621Z,16.30
2019-03-23T02:56:22.904Z,16.47
2019-03-23T02:58:50.433Z,13.40
2019-03-23T03:01:17.684Z,15.70
2019-03-23T03:03:44.960Z,15.57
2019-03-23T03:06:12.207Z,13.47
2019-03-23T03:08:39.490Z,18.13
2019-03-23T03:11:06.746Z,13.10
2019-03-23T03:13:33.989Z,13.20
2019-03-23T03:16:01.317Z,14.00
2019-03-23T03:18:28.624Z,15.10
2019-03-23T03:20:55.872Z,13.50
2019-03-23T03:23:23.155Z,12.83
2019-03-23T03:25:50.405Z,13.50
2019-03-23T03:28:17.690Z,16.47
2019-03-23T03:30:45.188Z,12.97
2019-03-23T03:33:12.513Z,15.70
2019-03-23T03:35:39.791Z,20.97
2019-03-23T03:38:07.129Z,16.00
2019-03-23T03:40:34.741Z,16.03
2019-03-23T03:43:01.991Z,13.90
2019-03-23T03:45:29.339Z,13.87
2019-03-23T03:47:56.668Z,18.37
2019-03-23T03:50:23.942Z,16.83
2019-03-23T03:52:51.224Z,17.53
2019-03-23T03:55:18.509Z,18.80
2019-03-23T03:57:45.831Z,16.47
2019-03-23T04:00:13.241Z,15.30
2019-03-23T04:02:40.787Z,14.83
2019-03-23T04:05:08.108Z,19.80
2019-03-23T04:07:35.638Z,16.03
2019-03-23T04:10:03.254Z,17.30
2019-03-23T04:12:30.532Z,17.90
2019-03-23T04:14:57.811Z,16.00
2019-03-23T04:17:25.343Z,17.33
2019-03-23T04:19:52.627Z,15.37
2019-03-23T04:22:19.900Z,24.23
2019-03-23T04:24:47.407Z,18.17
2019-03-23T04:27:14.687Z,15.50
2019-03-23T04:29:41.942Z,17.40
2019-03-23T04:32:09.222Z,19.07
2019-03-23T04:34:36.726Z,20.43
2019-03-23T04:37:04.013Z,17.60
2019-03-23T04:39:31.291Z,22.27
2019-03-23T04:41:58.542Z,18.90
2019-03-23T04:44:26.138Z,20.97
2019-03-23T04:46:53.683Z,18.53
2019-03-23T04:49:20.970Z,17.93
2019-03-23T04:51:48.475Z,17.77
2019-03-23T04:54:15.750Z,19.53
2019-03-23T04:56:43.216Z,26.80
2019-03-23T04:59:10.466Z,19.63
2019-03-23T05:01:37.753Z,18.60
2019-03-23T05:04:05.293Z,15.73
2019-03-23T05:06:32.543Z,19.53
2019-03-23T05:09:00.092Z,19.53
2019-03-23T05:11:27.600Z,19.20
2019-03-23T05:13:55.123Z,18.03
2019-03-23T05:16:22.373Z,19.47
2019-03-23T05:18:49.656Z,18.57
2019-03-23T05:21:16.914Z,15.70
2019-03-23T05:23:45.871Z,19.53
2019-03-23T05:26:13.521Z,17.77
2019-03-23T05:28:41.061Z,24.90
2019-03-23T05:31:08.390Z,23.73
2019-03-23T05:33:35.647Z,19.83
2019-03-23T05:36:02.902Z,20.30
2019-03-23T05:38:30.179Z,22.43
2019-03-23T05:40:57.435Z,23.50
2019-03-23T05:43:24.708Z,21.23
2019-03-23T05:45:51.970Z,23.70
2019-03-23T05:48:19.469Z,26.97
2019-03-23T05:50:46.747Z,26.03
2019-03-23T05:53:14.030Z,25.67
2019-03-23T05:55:41.570Z,25.20
2019-03-23T05:58:08.846Z,23.87
2019-03-23T06:00:36.347Z,23.70
2019-03-23T06:03:03.617Z,30.70
2019-03-23T06:05:30.869Z,25.90
2019-03-23T06:07:58.532Z,30.30
2019-03-23T06:10:25.811Z,25.10
2019-03-23T06:12:53.066Z,30.70
2019-03-23T06:15:20.357Z,25.50
2019-03-23T06:17:47.611Z,24.67
2019-03-23T06:20:14.885Z,24.83
2019-03-23T06:22:42.137Z,27.80
2019-03-23T06:25:09.601Z,25.03
2019-03-23T06:27:36.851Z,23.83
2019-03-23T06:30:05.478Z,24.60
2019-03-23T06:32:32.758Z,25.80
2019-03-23T06:35:00.009Z,27.23
2019-03-23T06:37:27.290Z,26.63
2019-03-23T06:39:54.614Z,36.73
2019-03-23T06:42:21.895Z,33.67
2019-03-23T06:44:49.251Z,30.67
2019-03-23T06:47:16.574Z,38.37
2019-03-23T06:49:43.866Z,48.03
2019-03-23T06:52:11.418Z,45.43
2019-03-23T06:54:38.709Z,51.20
2019-03-23T06:57:05.957Z,46.77
2019-03-23T06:59:33.238Z,50.53
2019-03-23T07:02:00.558Z,50.07
2019-03-23T07:04:27.890Z,50.77
2019-03-23T07:06:55.189Z,52.80
2019-03-23T07:09:22.806Z,51.67
2019-03-23T07:11:50.055Z,54.33
2019-03-23T07:14:17.338Z,51.87
2019-03-23T07:16:44.618Z,50.97
2019-03-23T07:19:11.869Z,48.17
2019-03-23T07:21:39.401Z,60.10
2019-03-23T07:24:06.911Z,53.30
2019-03-23T07:26:34.191Z,67.17
2019-03-23T07:29:01.448Z,53.93
2019-03-23T07:31:28.987Z,55.90
2019-03-23T07:33:56.242Z,60.20
2019-03-23T07:36:23.530Z,62.10
2019-03-23T07:38:50.769Z,62.40
2019-03-23T07:41:18.049Z,57.17
2019-03-23T07:43:45.298Z,58.03
2019-03-23T07:46:12.550Z,53.00
2019-03-23T07:48:39.827Z,60.20
2019-03-23T07:51:07.188Z,58.00
2019-03-23T07:53:34.681Z,59.60
2019-03-23T07:56:01.973Z,64.70
2019-03-23T07:58:29.218Z,58.83
2019-03-23T08:00:56.742Z,58.20
2019-03-23T08:03:24.021Z,60.77
2019-03-23T08:05:51.267Z,57.60
2019-03-23T08:08:18.544Z,78.17
2019-03-23T08:10:45.802Z,60.13
2019-03-23T08:13:13.342Z,57.83
2019-03-23T08:15:40.671Z,62.27
2019-03-23T08:18:07.937Z,63.83
2019-03-23T08:20:35.478Z,71.43
2019-03-23T08:23:02.732Z,63.57
2019-03-23T08:25:29.981Z,61.83
2019-03-23T08:27:57.263Z,63.40
2019-03-23T08:30:24.542Z,60.63
2019-03-23T08:32:51.813Z,67.30
2019-03-23T08:35:19.261Z,67.43
2019-03-23T08:37:46.512Z,60.20
2019-03-23T08:40:13.790Z,57.97
2019-03-23T08:42:41.082Z,58.80
2019-03-23T08:45:08.591Z,58.63
2019-03-23T08:47:35.878Z,65.80
2019-03-23T08:50:04.003Z,60.97
2019-03-23T08:52:31.277Z,63.80
2019-03-23T08:54:58.536Z,59.00
2019-03-23T08:57:25.810Z,62.40
2019-03-23T08:59:53.102Z,60.27
2019-03-23T09:02:21.802Z,59.30
2019-03-23T09:04:49.287Z,65.73
2019-03-23T09:07:16.565Z,61.83
2019-03-23T09:09:43.854Z,57.93
2019-03-23T09:12:11.102Z,61.20
2019-03-23T09:14:38.359Z,65.20
2019-03-23T09:17:05.651Z,57.93
2019-03-23T09:19:32.910Z,60.73
2019-03-23T09:22:00.163Z,61.60
2019-03-23T09:24:27.449Z,56.60
2019-03-23T09:26:54.717Z,59.40
2019-03-23T09:29:21.974Z,58.93
2019-03-23T09:31:49.250Z,69.50
2019-03-23T09:34:16.503Z,60.67
2019-03-23T09:36:43.789Z,60.57
2019-03-23T09:39:11.041Z,58.40
2019-03-23T09:41:38.558Z,60.37
2019-03-23T09:44:06.049Z,67.90
2019-03-23T09:46:33.341Z,59.90
2019-03-23T09:49:00.626Z,60.60
2019-03-23T09:51:29.354Z,59.40
2019-03-23T09:53:56.725Z,73.13
2019-03-23T09:56:23.985Z,62.93
2019-03-23T09:58:51.266Z,59.07
2019-03-23T10:01:18.514Z,60.67
2019-03-23T10:03:45.814Z,57.63
2019-03-23T10:06:13.314Z,54.20
2019-03-23T10:08:40.570Z,62.83
2019-03-23T10:11:07.841Z,65.53
2019-03-23T10:13:35.365Z,61.70
2019-03-23T10:16:02.913Z,67.03
2019-03-23T10:18:30.171Z,63.20
2019-03-23T10:20:57.411Z,60.10
2019-03-23T10:23:24.689Z,68.30
2019-03-23T10:25:51.941Z,70.73
2019-03-23T10:28:19.293Z,72.70
2019-03-23T10:30:46.822Z,73.87
2019-03-23T10:33:14.370Z,80.77
2019-03-23T10:35:41.654Z,73.03
2019-03-23T10:38:08.928Z,75.30
2019-03-23T10:40:36.253Z,77.20
2019-03-23T10:43:03.538Z,77.57
2019-03-23T10:45:30.891Z,76.47
2019-03-23T10:47:58.157Z,88.37
2019-03-23T10:50:25.681Z,85.17
2019-03-23T10:52:52.962Z,89.50
2019-03-23T10:55:20.498Z,91.17
2019-03-23T10:57:47.757Z,90.10
2019-03-23T11:00:15.277Z,104.50
2019-03-23T11:02:42.524Z,95.60
2019-03-23T11:05:09.921Z,96.67
2019-03-23T11:07:37.814Z,86.70
2019-03-23T11:10:07.059Z,90.20
2019-03-23T11:12:34.344Z,94.20
2019-03-23T11:15:02.006Z,105.43
2019-03-23T11:17:29.278Z,96.70
2019-03-23T11:19:58.448Z,99.80
2019-03-23T11:22:25.787Z,112.17
2019-03-23T11:24:53.321Z,111.17
2019-03-23T11:27:20.583Z,117.50
2019-03-23T11:29:48.100Z,108.63
2019-03-23T11:32:15.382Z,111.03
2019-03-23T11:34:42.670Z,108.70
2019-03-23T11:37:10.454Z,114.00
2019-03-23T11:39:37.793Z,115.47
2019-03-23T11:42:05.098Z,117.87
2019-03-23T11:44:32.359Z,111.63
2019-03-23T11:46:59.643Z,113.70
2019-03-23T11:49:26.979Z,118.00
2019-03-23T11:51:54.265Z,110.73
2019-03-23T11:54:21.523Z,125.83
2019-03-23T11:56:48.799Z,110.27
2019-03-23T11:59:16.082Z,112.20
2019-03-23T12:01:51.515Z,115.30
2019-03-23T12:04:12.453Z,112.87
2019-03-23T12:06:39.698Z,113.63
2019-03-23T12:09:07.352Z,112.37
2019-03-23T12:11:34.891Z,112.33
2019-03-23T12:14:02.393Z,103.90
2019-03-23T12:16:29.687Z,113.73
2019-03-23T12:18:57.126Z,113.43
2019-03-23T12:21:24.376Z,112.93
2019-03-23T12:23:51.922Z,101.93
2019-03-23T12:26:19.206Z,105.43
2019-03-23T12:28:46.712Z,109.40
2019-03-23T12:31:14.005Z,103.93
2019-03-23T12:33:41.502Z,109.47
2019-03-23T12:36:09.001Z,97.73
2019-03-23T12:38:36.295Z,101.80
2019-03-23T12:41:14.289Z,103.63
2019-03-23T12:43:32.556Z,111.03
2019-03-23T12:45:59.841Z,104.97
2019-03-23T12:48:27.394Z,107.67
2019-03-23T12:50:54.644Z,96.07
2019-03-23T12:53:21.931Z,100.93
2019-03-23T12:55:49.186Z,107.63
2019-03-23T12:58:16.462Z,106.20
2019-03-23T13:00:43.722Z,102.90
2019-03-23T13:03:10.999Z,103.70
2019-03-23T13:05:38.251Z,107.80
2019-03-23T13:08:05.531Z,107.80
2019-03-23T13:10:32.813Z,113.27
2019-03-23T13:13:00.065Z,105.47
2019-03-23T13:15:27.355Z,111.97
2019-03-23T13:17:54.646Z,103.20
2019-03-23T13:20:21.955Z,113.43
2019-03-23T13:22:49.376Z,116.53
2019-03-23T13:25:16.620Z,117.47
2019-03-23T13:27:43.874Z,119.90
2019-03-23T13:30:15.175Z,125.60
2019-03-23T13:32:42.453Z,124.13
2019-03-23T13:35:10.021Z,122.10
2019-03-23T13:37:37.379Z,116.87
2019-03-23T13:40:09.490Z,120.33
2019-03-23T13:42:36.786Z,123.90
2019-03-23T13:45:05.546Z,118.13
2019-03-23T13:47:33.083Z,121.23
2019-03-23T13:50:00.369Z,136.00
2019-03-23T13:52:27.621Z,138.60
2019-03-23T13:54:54.903Z,141.83
2019-03-23T13:57:22.158Z,138.93
2019-03-23T13:59:49.447Z,139.07
2019-03-23T14:02:16.701Z,134.93
2019-03-23T14:04:44.055Z,135.07
2019-03-23T14:07:11.301Z,154.33
2019-03-23T14:09:38.594Z,134.93
2019-03-23T14:12:05.849Z,151.07
2019-03-23T14:14:33.141Z,152.67
2019-03-23T14:17:00.639Z,153.60
2019-03-23T14:19:27.894Z,150.93
2019-03-23T14:21:55.184Z,149.10
2019-03-23T14:24:22.465Z,139.90
2019-03-23T14:26:49.746Z,137.60
2019-03-23T14:29:17.009Z,143.53
2019-03-23T14:31:44.300Z,146.10
2019-03-23T14:34:11.554Z,138.53
2019-03-23T14:36:38.839Z,146.63
2019-03-23T14:39:06.356Z,141.80
2019-03-23T14:41:33.641Z,134.57
2019-03-23T14:44:01.945Z,136.13
2019-03-23T14:46:29.197Z,129.90
2019-03-23T14:49:01.621Z,122.10
2019-03-23T14:51:25.492Z,136.73
2019-03-23T14:53:52.749Z,133.33
2019-03-23T14:56:20.030Z,118.60
2019-03-23T14:58:47.294Z,126.53
2019-03-23T15:01:14.557Z,134.47
2019-03-23T15:03:41.842Z,123.13
2019-03-23T15:06:09.099Z,123.27
2019-03-23T15:08:36.405Z,131.60
2019-03-23T15:11:03.774Z,120.87
2019-03-23T15:13:31.063Z,123.90
2019-03-23T15:15:58.314Z,131.23
2019-03-23T15:18:25.603Z,128.50
2019-03-23T15:20:52.858Z,126.60
2019-03-23T15:23:20.146Z,137.00
2019-03-23T15:25:47.404Z,132.80
2019-03-23T15:28:14.941Z,126.80
2019-03-23T15:30:42.194Z,132.30
2019-03-23T15:33:09.485Z,127.50
2019-03-23T15:35:36.974Z,136.20
2019-03-23T15:38:04.261Z,129.50
2019-03-23T15:40:31.522Z,133.07
2019-03-23T15:42:58.799Z,129.50
2019-03-23T15:45:26.056Z,147.03
2019-03-23T15:47:53.345Z,134.03
2019-03-23T15:50:20.604Z,134.07
2019-03-23T15:52:47.895Z,136.53
2019-03-23T15:55:15.152Z,138.67
2019-03-23T15:57:42.405Z,139.30
2019-03-23T16:00:10.806Z,147.13
2019-03-23T16:02:38.069Z,130.13
2019-03-23T16:05:06.229Z,134.10
2019-03-23T16:07:33.518Z,137.40
2019-03-23T16:10:01.306Z,134.37
2019-03-23T16:12:34.753Z,134.60
2019-03-23T16:14:57.570Z,134.23
2019-03-23T16:17:25.073Z,124.57
2019-03-23T16:19:52.329Z,131.07
2019-03-23T16:22:19.618Z,121.50
2019-03-23T16:24:47.138Z,138.87
2019-03-23T16:27:14.418Z,122.77
2019-03-23T16:29:41.679Z,130.97
2019-03-23T16:32:08.962Z,110.67
2019-03-23T16:34:36.494Z,126.27
2019-03-23T16:37:04.032Z,115.40
2019-03-23T16:39:31.291Z,119.93
2019-03-23T16:41:58.565Z,111.77
2019-03-23T16:44:25.817Z,119.20
2019-03-23T16:46:53.354Z,120.17
2019-03-23T16:49:20.607Z,116.60
2019-03-23T16:51:47.886Z,108.77
2019-03-23T16:54:15.166Z,121.00
2019-03-23T16:56:48.969Z,106.27
2019-03-23T16:59:18.151Z,118.07
2019-03-23T17:01:45.506Z,110.50
2019-03-23T17:04:13.095Z,110.70
2019-03-23T17:06:46.254Z,102.17
2019-03-23T17:09:09.379Z,110.30
2019-03-23T17:11:37.043Z,108.30
2019-03-23T17:14:04.640Z,107.93
2019-03-23T17:16:31.958Z,101.10
2019-03-23T17:18:59.398Z,115.80
2019-03-23T17:21:26.752Z,106.87
2019-03-23T17:23:54.085Z,105.40
2019-03-23T17:26:21.381Z,102.30
2019-03-23T17:28:48.667Z,118.27
2019-03-23T17:31:16.194Z,109.33
2019-03-23T17:33:43.479Z,110.20
2019-03-23T17:36:10.814Z,111.43
2019-03-23T17:38:38.415Z,112.97
2019-03-23T17:41:05.675Z,103.60
2019-03-23T17:43:32.958Z,99.77
2019-03-23T17:46:00.250Z,100.63
2019-03-23T17:48:27.803Z,99.97
2019-03-23T17:50:55.059Z,112.20
2019-03-23T17:53:22.316Z,105.90
2019-03-23T17:55:49.858Z,100.30
2019-03-23T17:58:17.362Z,100.20
2019-03-23T18:00:44.796Z,94.77
2019-03-23T18:03:12.085Z,109.80
2019-03-23T18:05:39.418Z,110.53
2019-03-23T18:08:06.705Z,95.00
2019-03-23T18:10:33.961Z,102.30
2019-03-23T18:13:01.478Z,97.63
2019-03-23T18:15:29.014Z,104.03
2019-03-23T18:17:56.267Z,102.97
2019-03-23T18:20:23.802Z,104.33
2019-03-23T18:22:51.058Z,89.50
2019-03-23T18:25:18.404Z,97.70
2019-03-23T18:27:45.921Z,92.43
2019-03-23T18:30:23.397Z,110.60
2019-03-23T18:32:50.674Z,103.33
2019-03-23T18:35:18.016Z,99.37
2019-03-23T18:37:45.532Z,101.90
2019-03-23T18:40:12.850Z,93.00
2019-03-23T18:42:40.131Z,96.80
2019-03-23T18:45:07.409Z,94.70
2019-03-23T18:47:34.684Z,101.93
2019-03-23T18:50:04.074Z,99.67
2019-03-23T18:52:31.573Z,96.40
2019-03-23T18:54:58.862Z,97.77
2019-03-23T18:57:26.129Z,110.23
2019-03-23T18:59:53.446Z,103.23
2019-03-23T19:02:20.734Z,96.87
2019-03-23T19:04:49.670Z,99.40
2019-03-23T19:07:17.042Z,98.90
2019-03-23T19:09:44.289Z,92.43
2019-03-23T19:12:11.576Z,97.43
2019-03-23T19:14:38.828Z,95.10
2019-03-23T19:17:06.362Z,101.83
2019-03-23T19:19:33.610Z,95.47
2019-03-23T19:22:01.181Z,96.30
2019-03-23T19:24:28.865Z,112.43
2019-03-23T19:26:56.877Z,100.83
2019-03-23T19:29:24.366Z,97.53
2019-03-23T19:31:52.061Z,92.00
2019-03-23T19:34:19.623Z,97.73
2019-03-23T19:36:46.938Z,94.57
2019-03-23T19:39:14.253Z,96.70
2019-03-23T19:41:41.683Z,104.20
2019-03-23T19:44:09.358Z,101.37
2019-03-23T19:46:36.858Z,101.23
2019-03-23T19:49:05.013Z,95.33
2019-03-23T19:51:32.514Z,97.10
2019-03-23T19:54:00.662Z,107.40
2019-03-23T19:56:28.438Z,97.30
2019-03-23T19:58:55.765Z,111.63
2019-03-23T20:01:23.016Z,100.53
2019-03-23T20:03:50.302Z,105.90
2019-03-23T20:06:17.560Z,100.50
2019-03-23T20:08:45.107Z,101.27
2019-03-23T20:11:12.392Z,114.93
2019-03-23T20:13:39.645Z,105.13
2019-03-23T20:16:06.921Z,107.67
2019-03-23T20:18:34.453Z,101.73
2019-03-23T20:21:01.706Z,99.43
2019-03-23T20:23:28.995Z,114.60
2019-03-23T20:25:58.178Z,112.87
2019-03-23T20:28:26.050Z,114.97
2019-03-23T20:30:54.532Z,109.20
2019-03-23T20:33:26.364Z,123.20
2019-03-23T20:35:56.539Z,101.17
2019-03-23T20:38:24.121Z,107.20
2019-03-23T20:40:51.403Z,117.30
2019-03-23T20:43:19.131Z,107.30
2019-03-23T20:45:48.017Z,132.10
2019-03-23T20:48:17.634Z,124.63
2019-03-23T20:50:45.137Z,117.80
2019-03-23T20:53:14.086Z,103.47
2019-03-23T20:55:41.617Z,119.87
2019-03-23T20:58:09.547Z,101.03
2019-03-23T21:00:37.014Z,95.70
2019-03-23T21:03:05.052Z,104.20
2019-03-23T21:05:34.181Z,94.23
2019-03-23T21:08:02.083Z,106.97
2019-03-23T21:10:29.750Z,112.23
2019-03-23T21:12:57.310Z,99.77
2019-03-23T21:15:25.742Z,105.33
2019-03-23T21:17:53.379Z,85.80
2019-03-23T21:20:21.066Z,112.33
2019-03-23T21:22:48.625Z,96.33
2019-03-23T21:25:15.978Z,79.37
2019-03-23T21:27:43.347Z,92.73
2019-03-23T21:30:12.381Z,103.47
2019-03-23T21:32:40.070Z,93.93
2019-03-23T21:35:08.253Z,83.50
2019-03-23T21:37:37.088Z,95.13
2019-03-23T21:40:05.622Z,91.50
2019-03-23T21:42:33.274Z,77.90
2019-03-23T21:45:00.960Z,82.10
2019-03-23T21:47:28.296Z,72.10
2019-03-23T21:49:55.901Z,79.93
2019-03-23T21:52:23.301Z,84.50
2019-03-23T21:54:50.914Z,70.60
2019-03-23T21:57:18.520Z,76.13
2019-03-23T21:59:46.418Z,77.23
2019-03-23T22:02:14.606Z,73.37
2019-03-23T22:04:42.381Z,69.70
2019-03-23T22:07:10.002Z,72.97
2019-03-23T22:09:37.759Z,74.07
2019-03-23T22:12:05.121Z,67.97
2019-03-23T22:14:41.310Z,72.37
2019-03-23T22:17:01.467Z,60.07
2019-03-23T22:19:29.232Z,62.37
2019-03-23T22:21:56.741Z,62.43
2019-03-23T22:24:24.240Z,64.27
2019-03-23T22:26:51.814Z,52.83
2019-03-23T22:29:19.881Z,57.03
2019-03-23T22:31:47.520Z,54.30
2019-03-23T22:34:15.060Z,63.37
2019-03-23T22:36:42.542Z,56.10
2019-03-23T22:39:10.090Z,52.73
2019-03-23T22:41:37.728Z,63.57
2019-03-23T22:44:05.223Z,50.00
2019-03-23T22:46:32.818Z,48.83
2019-03-23T22:49:00.543Z,50.97
2019-03-23T22:51:28.406Z,63.13
2019-03-23T22:53:55.981Z,51.97
2019-03-23T22:56:23.709Z,50.73
2019-03-23T22:58:51.840Z,53.23
2019-03-23T23:01:20.335Z,53.73
2019-03-23T23:03:48.092Z,53.00
2019-03-23T23:06:16.747Z,56.67
2019-03-23T23:08:44.794Z,55.50
2019-03-23T23:11:12.732Z,52.90
2019-03-23T23:13:40.477Z,48.23
2019-03-23T23:16:08.376Z,50.73
2019-03-23T23:18:36.002Z,53.77
2019-03-23T23:21:04.301Z,56.73
2019-03-23T23:23:32.110Z,52.00
2019-03-23T23:25:59.814Z,56.57
2019-03-23T23:28:27.595Z,70.43
2019-03-23T23:30:55.879Z,56.20
2019-03-23T23:33:23.981Z,56.53
2019-03-23T23:35:52.502Z,60.80
2019-03-23T23:38:20.035Z,56.73
2019-03-23T23:40:47.549Z,57.27
2019-03-23T23:43:15.344Z,48.43
2019-03-23T23:45:43.224Z,55.97
2019-03-23T23:48:11.649Z,52.90
2019-03-23T23:50:39.235Z,57.23
2019-03-23T23:53:06.758Z,63.87
2019-03-23T23:55:34.244Z,58.27
2019-03-23T23:58:02.049Z,67.20
